Time;durP1;ratioP1;P1;durP2;ratioP2;P2;SDS_P1;SDS_P2;PMS_P1;PMS_P2;Temp;Humidity;BMP_temperature;BMP_pressure;BME280_temperature;BME280_humidity;BME280_pressure;Samples;Min_cycle;Max_cycle;Signal;HPM_P1;HPM_P2
2024/02/21 00:02:00;;;;;;;19.50;4.30;;;;;;;;;;5109457;28;20028;-58
2024/02/21 00:04:26;;;;;;;15.73;4.22;;;;;;;;;;5103418;28;20023;-59
2024/02/21 00:06:52;;;;;;;12.90;4.40;;;;;;;;;;5100051;28;20036;-59
2024/02/21 00:09:19;;;;;;;21.30;4.70;;;;;;;;;;5097997;28;20031;-58
2024/02/21 00:11:45;;;;;;;16.42;4.07;;;;;;;;;;5093618;28;20027;-59
2024/02/21 00:14:11;;;;;;;13.25;3.70;;;;;;;;;;5101881;28;20020;-58
2024/02/21 00:16:37;;;;;;;13.75;3.95;;;;;;;;;;5087536;28;20102;-58
2024/02/21 00:19:03;;;;;;;17.38;4.28;;;;;;;;;;5112446;28;20038;-58
2024/02/21 00:21:29;;;;;;;13.10;3.40;;;;;;;;;;5101866;28;20106;-58
2024/02/21 00:23:55;;;;;;;19.58;3.85;;;;;;;;;;5101829;28;20050;-58
2024/02/21 00:26:21;;;;;;;15.60;3.42;;;;;;;;;;5094114;28;20028;-59
2024/02/21 00:28:47;;;;;;;11.38;4.00;;;;;;;;;;5093251;28;20020;-58
2024/02/21 00:31:13;;;;;;;15.27;4.20;;;;;;;;;;5091789;28;20028;-58
2024/02/21 00:33:39;;;;;;;9.38;2.90;;;;;;;;;;5093883;28;20064;-58
2024/02/21 00:36:05;;;;;;;12.48;3.83;;;;;;;;;;5096256;28;20418;-58
2024/02/21 00:38:31;;;;;;;11.75;3.78;;;;;;;;;;5097138;28;20039;-58
2024/02/21 00:40:57;;;;;;;16.60;3.90;;;;;;;;;;5093510;28;20030;-59
2024/02/21 00:43:24;;;;;;;16.75;4.00;;;;;;;;;;5089352;28;20024;-58
2024/02/21 00:45:50;;;;;;;11.90;3.35;;;;;;;;;;5102690;28;20046;-58
2024/02/21 00:48:16;;;;;;;20.50;4.22;;;;;;;;;;5110290;28;20019;-58
2024/02/21 00:50:42;;;;;;;20.60;4.07;;;;;;;;;;5107505;28;20453;-58
2024/02/21 00:53:09;;;;;;;12.95;4.20;;;;;;;;;;5093259;28;20048;-59
2024/02/21 00:55:35;;;;;;;10.68;3.80;;;;;;;;;;5107640;28;20525;-58
2024/02/21 00:58:01;;;;;;;16.02;4.45;;;;;;;;;;5100845;28;20028;-58
2024/02/21 01:00:27;;;;;;;15.45;3.80;;;;;;;;;;5101476;28;20031;-57
2024/02/21 01:02:53;;;;;;;16.13;4.88;;;;;;;;;;5092777;28;20031;-59
2024/02/21 01:05:19;;;;;;;14.68;4.15;;;;;;;;;;5097239;28;20024;-58
2024/02/21 01:07:46;;;;;;;16.10;3.70;;;;;;;;;;5099455;28;20110;-59
2024/02/21 01:10:12;;;;;;;22.73;4.13;;;;;;;;;;5099617;28;20050;-58
2024/02/21 01:12:38;;;;;;;17.85;5.22;;;;;;;;;;5106589;28;20108;-62
2024/02/21 01:15:04;;;;;;;11.55;3.60;;;;;;;;;;5092540;28;20028;-57
2024/02/21 01:17:30;;;;;;;11.00;3.95;;;;;;;;;;5089761;28;20048;-56
2024/02/21 01:19:56;;;;;;;14.65;3.58;;;;;;;;;;5091697;28;20399;-56
2024/02/21 01:22:22;;;;;;;16.23;3.88;;;;;;;;;;5093949;28;20036;-56
2024/02/21 01:24:48;;;;;;;15.27;4.70;;;;;;;;;;5097988;28;20153;-56
2024/02/21 01:27:14;;;;;;;15.60;3.45;;;;;;;;;;5102710;28;20028;-56
2024/02/21 01:29:40;;;;;;;23.10;4.53;;;;;;;;;;5096653;28;20103;-57
2024/02/21 01:32:06;;;;;;;17.88;4.55;;;;;;;;;;5103775;28;20016;-57
2024/02/21 01:34:32;;;;;;;15.82;4.15;;;;;;;;;;5092195;28;20039;-56
2024/02/21 01:36:59;;;;;;;17.25;4.72;;;;;;;;;;5097550;28;20082;-57
2024/02/21 01:39:25;;;;;;;12.70;3.88;;;;;;;;;;5107603;28;20068;-56
2024/02/21 01:41:51;;;;;;;12.25;4.13;;;;;;;;;;5109833;28;20124;-57
2024/02/21 01:44:16;;;;;;;13.10;3.83;;;;;;;;;;5111015;28;20028;-58
2024/02/21 01:46:42;;;;;;;12.55;3.53;;;;;;;;;;5102631;28;20036;-55
2024/02/21 01:49:09;;;;;;;13.07;4.57;;;;;;;;;;5091339;28;20081;-57
2024/02/21 01:51:35;;;;;;;24.58;3.90;;;;;;;;;;5098950;28;20027;-56
2024/02/21 01:54:01;;;;;;;16.88;4.18;;;;;;;;;;5104702;28;20501;-56
2024/02/21 01:56:27;;;;;;;12.10;3.97;;;;;;;;;;5101173;28;20129;-56
2024/02/21 01:58:53;;;;;;;20.73;4.82;;;;;;;;;;5095424;28;20032;-57
2024/02/21 02:01:19;;;;;;;17.80;4.95;;;;;;;;;;5095583;28;20032;-56
2024/02/21 02:03:46;;;;;;;12.48;3.80;;;;;;;;;;5093989;28;20442;-57
2024/02/21 02:06:13;;;;;;;13.52;4.65;;;;;;;;;;5103722;28;20031;-57
2024/02/21 02:08:39;;;;;;;20.95;4.00;;;;;;;;;;5095065;28;20042;-57
2024/02/21 02:11:05;;;;;;;15.15;4.88;;;;;;;;;;5092972;28;20027;-56
2024/02/21 02:13:31;;;;;;;14.38;4.75;;;;;;;;;;5091457;28;20028;-57
2024/02/21 02:15:56;;;;;;;18.88;3.83;;;;;;;;;;5097490;28;20027;-56
2024/02/21 02:18:22;;;;;;;23.08;4.60;;;;;;;;;;5091424;28;20095;-57
2024/02/21 02:20:49;;;;;;;20.98;5.10;;;;;;;;;;5085674;28;20016;-59
2024/02/21 02:23:22;;;;;;;12.68;3.63;;;;;;;;;;5086538;28;20024;-56
2024/02/21 02:25:49;;;;;;;18.85;4.53;;;;;;;;;;5083464;28;20393;-56
2024/02/21 02:28:15;;;;;;;14.80;4.28;;;;;;;;;;5074936;28;20054;-59
2024/02/21 02:30:41;;;;;;;11.45;4.55;;;;;;;;;;5089715;28;20487;-59
2024/02/21 02:33:07;;;;;;;22.95;4.50;;;;;;;;;;5086592;28;20031;-59
2024/02/21 02:35:35;;;;;;;19.25;4.68;;;;;;;;;;5081068;28;20029;-59
2024/02/21 02:38:01;;;;;;;15.98;4.53;;;;;;;;;;5072707;28;20115;-59
2024/02/21 02:40:27;;;;;;;22.38;4.95;;;;;;;;;;5089198;28;20028;-59
2024/02/21 02:42:54;;;;;;;14.73;4.30;;;;;;;;;;5081722;28;20040;-58
2024/02/21 02:45:22;;;;;;;18.90;4.70;;;;;;;;;;5091115;28;20436;-60
2024/02/21 02:47:48;;;;;;;25.42;4.60;;;;;;;;;;5091153;28;20119;-60
2024/02/21 02:50:15;;;;;;;20.35;4.60;;;;;;;;;;5084484;28;20040;-59
2024/02/21 02:52:41;;;;;;;13.15;4.88;;;;;;;;;;5075552;28;20028;-60
2024/02/21 02:55:07;;;;;;;14.50;4.25;;;;;;;;;;5078605;28;20027;-59
2024/02/21 02:57:33;;;;;;;19.10;6.05;;;;;;;;;;5089223;28;20036;-59
2024/02/21 02:59:59;;;;;;;17.60;4.90;;;;;;;;;;5088758;28;20036;-58
2024/02/21 03:02:25;;;;;;;19.25;5.43;;;;;;;;;;5093446;28;20032;-58
2024/02/21 03:04:51;;;;;;;22.48;5.25;;;;;;;;;;5094445;28;20073;-59
2024/02/21 03:07:17;;;;;;;15.82;4.93;;;;;;;;;;5094142;28;20361;-59
2024/02/21 03:09:43;;;;;;;16.27;5.75;;;;;;;;;;5092576;28;20102;-59
2024/02/21 03:12:09;;;;;;;13.02;5.20;;;;;;;;;;5083783;28;20047;-59
2024/02/21 03:14:36;;;;;;;18.20;5.80;;;;;;;;;;5087668;28;20025;-59
2024/02/21 03:17:02;;;;;;;21.42;5.45;;;;;;;;;;5086374;28;20499;-59
2024/02/21 03:19:29;;;;;;;20.17;5.22;;;;;;;;;;5085625;28;20082;-59
2024/02/21 03:21:55;;;;;;;18.25;5.15;;;;;;;;;;5075533;28;20562;-58
2024/02/21 03:24:21;;;;;;;24.55;5.72;;;;;;;;;;5067819;28;20033;-59
2024/02/21 03:26:48;;;;;;;17.25;5.45;;;;;;;;;;5090570;28;20024;-59
2024/02/21 03:29:15;;;;;;;19.45;5.35;;;;;;;;;;5093146;28;20499;-59
2024/02/21 03:31:41;;;;;;;26.85;5.90;;;;;;;;;;5085933;28;20032;-59
2024/02/21 03:34:07;;;;;;;19.83;5.40;;;;;;;;;;5085670;28;20553;-59
2024/02/21 03:36:33;;;;;;;22.73;5.70;;;;;;;;;;5079222;28;20040;-59
2024/02/21 03:38:59;;;;;;;25.90;6.65;;;;;;;;;;5082224;28;20020;-59
2024/02/21 03:41:25;;;;;;;17.48;5.93;;;;;;;;;;5087895;28;20776;-59
2024/02/21 03:43:51;;;;;;;21.90;5.72;;;;;;;;;;5072067;28;20031;-60
2024/02/21 03:46:17;;;;;;;22.40;5.53;;;;;;;;;;5088691;28;20028;-59
2024/02/21 03:48:43;;;;;;;20.02;6.03;;;;;;;;;;5091002;28;20037;-56
2024/02/21 03:51:09;;;;;;;20.40;6.90;;;;;;;;;;5085725;28;20530;-57
2024/02/21 03:53:35;;;;;;;19.08;5.90;;;;;;;;;;5086948;28;20016;-57
2024/02/21 03:56:04;;;;;;;20.45;5.90;;;;;;;;;;5080038;28;20480;-58
2024/02/21 03:58:30;;;;;;;20.48;5.55;;;;;;;;;;5091451;28;20020;-59
2024/02/21 04:00:56;;;;;;;19.58;5.60;;;;;;;;;;5084743;28;20017;-58
2024/02/21 04:03:22;;;;;;;16.80;5.53;;;;;;;;;;5087876;28;20103;-59
2024/02/21 04:05:48;;;;;;;26.00;6.20;;;;;;;;;;5078972;28;20024;-59
2024/02/21 04:08:14;;;;;;;24.52;5.95;;;;;;;;;;5081030;28;20021;-60
2024/02/21 04:10:40;;;;;;;20.52;5.60;;;;;;;;;;5084659;28;20024;-59
2024/02/21 04:13:07;;;;;;;15.55;6.03;;;;;;;;;;5079114;28;20468;-59
2024/02/21 04:15:33;;;;;;;19.35;5.80;;;;;;;;;;5093573;28;20024;-59
2024/02/21 04:17:59;;;;;;;13.43;5.50;;;;;;;;;;5094490;28;20048;-60
2024/02/21 04:20:26;;;;;;;18.05;6.32;;;;;;;;;;5081867;28;20043;-59
2024/02/21 04:22:52;;;;;;;28.33;6.95;;;;;;;;;;5081503;28;20107;-59
2024/02/21 04:25:19;;;;;;;18.33;6.18;;;;;;;;;;5079667;28;20059;-59
2024/02/21 04:27:45;;;;;;;23.48;6.00;;;;;;;;;;5097475;28;20074;-59
2024/02/21 04:30:11;;;;;;;23.13;6.07;;;;;;;;;;5102738;28;20027;-60
2024/02/21 04:32:37;;;;;;;18.52;6.88;;;;;;;;;;5095626;28;20024;-59
2024/02/21 04:35:03;;;;;;;16.52;5.82;;;;;;;;;;5084432;28;20399;-59
2024/02/21 04:37:29;;;;;;;25.40;6.50;;;;;;;;;;5088354;28;20032;-59
2024/02/21 04:39:55;;;;;;;20.42;6.40;;;;;;;;;;5099645;28;20058;-60
2024/02/21 04:42:21;;;;;;;19.73;7.03;;;;;;;;;;5092915;28;20391;-59
2024/02/21 04:44:47;;;;;;;18.20;6.57;;;;;;;;;;5095590;28;20419;-59
2024/02/21 04:47:13;;;;;;;21.25;6.07;;;;;;;;;;5107037;28;20078;-59
2024/02/21 04:49:39;;;;;;;20.35;5.50;;;;;;;;;;5094788;28;20051;-59
2024/02/21 04:52:05;;;;;;;19.77;5.63;;;;;;;;;;5092440;28;20026;-59
2024/02/21 04:54:31;;;;;;;15.82;6.53;;;;;;;;;;5093864;28;20062;-59
2024/02/21 04:56:57;;;;;;;25.35;6.22;;;;;;;;;;5078502;28;20107;-59
2024/02/21 04:59:23;;;;;;;21.65;6.55;;;;;;;;;;5095481;28;20089;-59
2024/02/21 05:01:49;;;;;;;26.17;7.10;;;;;;;;;;5101880;28;20024;-59
2024/02/21 05:04:15;;;;;;;23.50;6.30;;;;;;;;;;5086629;28;20056;-58
2024/02/21 05:06:41;;;;;;;20.77;7.03;;;;;;;;;;5099249;28;20028;-59
2024/02/21 05:09:11;;;;;;;17.88;5.93;;;;;;;;;;5085748;28;20213;-59
2024/02/21 05:11:40;;;;;;;22.55;6.97;;;;;;;;;;5096340;28;20043;-59
2024/02/21 05:14:06;;;;;;;18.25;6.75;;;;;;;;;;5101428;28;20119;-59
2024/02/21 05:16:32;;;;;;;23.70;7.35;;;;;;;;;;5093798;28;20058;-59
2024/02/21 05:18:58;;;;;;;21.20;5.53;;;;;;;;;;5085547;28;20021;-59
2024/02/21 05:21:24;;;;;;;15.07;5.50;;;;;;;;;;5086798;28;20020;-59
2024/02/21 05:23:51;;;;;;;21.10;6.78;;;;;;;;;;5100748;28;20055;-59
2024/02/21 05:26:23;;;;;;;15.23;5.97;;;;;;;;;;5089540;28;20426;-59
2024/02/21 05:28:53;;;;;;;19.92;7.07;;;;;;;;;;5092210;28;20028;-59
2024/02/21 05:31:19;;;;;;;23.00;7.28;;;;;;;;;;5083218;28;20111;-59
2024/02/21 05:33:45;;;;;;;23.40;7.10;;;;;;;;;;5091614;28;20078;-59
2024/02/21 05:36:11;;;;;;;30.00;7.60;;;;;;;;;;5088651;28;20023;-59
2024/02/21 05:38:37;;;;;;;23.70;7.65;;;;;;;;;;5084462;28;20035;-59
2024/02/21 05:41:03;;;;;;;19.02;6.82;;;;;;;;;;5078535;28;20118;-58
2024/02/21 05:43:29;;;;;;;22.95;7.80;;;;;;;;;;5100215;28;20367;-59
2024/02/21 05:45:55;;;;;;;25.35;6.53;;;;;;;;;;5088641;28;20020;-59
2024/02/21 05:48:22;;;;;;;24.48;7.13;;;;;;;;;;5095566;28;20421;-59
2024/02/21 05:50:48;;;;;;;21.00;6.72;;;;;;;;;;5088107;28;20111;-59
2024/02/21 05:53:14;;;;;;;23.25;7.13;;;;;;;;;;5089580;28;20024;-59
2024/02/21 05:55:40;;;;;;;29.95;8.82;;;;;;;;;;5092105;28;20101;-59
2024/02/21 05:58:07;;;;;;;25.48;8.20;;;;;;;;;;5088585;28;20387;-59
2024/02/21 06:00:33;;;;;;;17.27;6.90;;;;;;;;;;5080504;28;20032;-59
2024/02/21 06:02:59;;;;;;;25.90;7.85;;;;;;;;;;5080926;28;20096;-59
2024/02/21 06:05:25;;;;;;;21.70;8.80;;;;;;;;;;5084534;28;20028;-59
2024/02/21 06:07:51;;;;;;;27.45;8.13;;;;;;;;;;5091240;28;20036;-59
2024/02/21 06:10:17;;;;;;;22.65;8.00;;;;;;;;;;5095803;28;20029;-59
2024/02/21 06:12:43;;;;;;;19.58;6.85;;;;;;;;;;5088617;28;20153;-59
2024/02/21 06:15:09;;;;;;;24.50;8.25;;;;;;;;;;5084214;28;20016;-59
2024/02/21 06:17:35;;;;;;;24.10;7.78;;;;;;;;;;5093481;28;20048;-60
2024/02/21 06:20:01;;;;;;;20.23;7.72;;;;;;;;;;5103488;28;20396;-59
2024/02/21 06:22:27;;;;;;;23.38;7.57;;;;;;;;;;5084631;28;20032;-60
2024/02/21 06:24:54;;;;;;;21.00;7.43;;;;;;;;;;5106252;28;20039;-59
2024/02/21 06:27:20;;;;;;;20.48;7.93;;;;;;;;;;5099772;28;20480;-59
2024/02/21 06:29:46;;;;;;;26.20;7.65;;;;;;;;;;5092136;28;20095;-59
2024/02/21 06:32:12;;;;;;;19.60;8.40;;;;;;;;;;5092051;28;20027;-59
2024/02/21 06:34:38;;;;;;;24.95;8.52;;;;;;;;;;5093760;28;20020;-59
2024/02/21 06:37:04;;;;;;;24.35;7.38;;;;;;;;;;5114594;28;20024;-61
2024/02/21 06:39:30;;;;;;;19.13;8.05;;;;;;;;;;5095156;28;20047;-59
2024/02/21 06:41:56;;;;;;;27.25;8.82;;;;;;;;;;5097097;28;20154;-59
2024/02/21 06:44:22;;;;;;;18.92;7.45;;;;;;;;;;5090391;28;20100;-59
2024/02/21 06:46:48;;;;;;;23.33;8.40;;;;;;;;;;5081101;28;20039;-59
2024/02/21 06:49:15;;;;;;;29.02;8.02;;;;;;;;;;5093143;28;20024;-59
2024/02/21 06:51:45;;;;;;;22.67;7.93;;;;;;;;;;5093597;28;20020;-59
2024/02/21 06:54:11;;;;;;;23.55;8.73;;;;;;;;;;5087615;28;20083;-58
2024/02/21 06:56:37;;;;;;;22.92;8.57;;;;;;;;;;5094928;28;20106;-58
2024/02/21 06:59:04;;;;;;;25.08;7.82;;;;;;;;;;5095216;28;20044;-60
2024/02/21 07:01:30;;;;;;;25.10;8.27;;;;;;;;;;5089732;28;20540;-59
2024/02/21 07:03:56;;;;;;;21.20;8.65;;;;;;;;;;5088985;28;20024;-60
2024/02/21 07:06:22;;;;;;;21.20;7.63;;;;;;;;;;5093310;28;20036;-59
2024/02/21 07:08:48;;;;;;;15.93;7.63;;;;;;;;;;5092235;28;20459;-59
2024/02/21 07:11:14;;;;;;;19.45;7.15;;;;;;;;;;5088747;28;20020;-60
2024/02/21 07:13:40;;;;;;;23.13;7.03;;;;;;;;;;5091511;28;20099;-60
2024/02/21 07:16:07;;;;;;;20.80;8.23;;;;;;;;;;5083127;28;20067;-59
2024/02/21 07:18:33;;;;;;;25.00;8.27;;;;;;;;;;5092371;28;20028;-60
2024/02/21 07:20:59;;;;;;;17.92;7.57;;;;;;;;;;5088467;28;20104;-59
2024/02/21 07:23:25;;;;;;;17.70;7.68;;;;;;;;;;5083144;28;20474;-59
2024/02/21 07:25:51;;;;;;;19.17;7.55;;;;;;;;;;5088108;28;20036;-59
2024/02/21 07:28:17;;;;;;;24.15;7.28;;;;;;;;;;5089734;28;20028;-60
2024/02/21 07:30:43;;;;;;;16.88;7.13;;;;;;;;;;5095808;28;20065;-59
2024/02/21 07:33:09;;;;;;;13.05;6.13;;;;;;;;;;5096716;28;20744;-59
2024/02/21 07:35:40;;;;;;;22.63;6.28;;;;;;;;;;5093276;28;20099;-59
2024/02/21 07:38:07;;;;;;;17.65;6.93;;;;;;;;;;5077235;28;20025;-59
2024/02/21 07:40:33;;;;;;;21.20;6.65;;;;;;;;;;5090115;28;20031;-59
2024/02/21 07:42:59;;;;;;;19.38;6.47;;;;;;;;;;5078040;28;20036;-58
2024/02/21 07:45:25;;;;;;;17.65;6.28;;;;;;;;;;5085277;28;20379;-59
2024/02/21 07:47:51;;;;;;;15.13;6.65;;;;;;;;;;5088099;28;20418;-59
2024/02/21 07:50:17;;;;;;;18.75;7.20;;;;;;;;;;5104950;28;20020;-58
2024/02/21 07:52:43;;;;;;;12.35;5.70;;;;;;;;;;5087558;28;20042;-60
2024/02/21 07:55:12;;;;;;;19.02;6.28;;;;;;;;;;5093070;28;20040;-59
2024/02/21 07:57:38;;;;;;;14.43;6.90;;;;;;;;;;5089621;28;20020;-59
2024/02/21 08:00:04;;;;;;;13.98;5.63;;;;;;;;;;5093838;28;20023;-59
2024/02/21 08:02:30;;;;;;;18.55;5.80;;;;;;;;;;5089063;28;20036;-59
2024/02/21 08:04:56;;;;;;;20.55;6.03;;;;;;;;;;5088339;28;20032;-59
2024/02/21 08:07:22;;;;;;;17.40;5.93;;;;;;;;;;5080601;28;20038;-59
2024/02/21 08:09:48;;;;;;;25.35;6.82;;;;;;;;;;5088126;28;20028;-59
2024/02/21 08:12:14;;;;;;;17.30;6.70;;;;;;;;;;5089843;28;20368;-59
2024/02/21 08:14:40;;;;;;;16.10;5.90;;;;;;;;;;5086435;28;20025;-59
2024/02/21 08:17:06;;;;;;;21.50;6.20;;;;;;;;;;5086412;28;20094;-59
2024/02/21 08:19:33;;;;;;;25.23;6.45;;;;;;;;;;5090991;28;20032;-59
2024/02/21 08:21:58;;;;;;;13.93;7.13;;;;;;;;;;5090002;28;20391;-60
2024/02/21 08:24:24;;;;;;;24.00;7.03;;;;;;;;;;5080418;28;20032;-59
2024/02/21 08:26:50;;;;;;;15.25;6.38;;;;;;;;;;5092338;28;20396;-60
2024/02/21 08:29:16;;;;;;;14.30;5.50;;;;;;;;;;5096287;28;20045;-59
2024/02/21 08:31:42;;;;;;;13.90;6.53;;;;;;;;;;5106144;28;20514;-60
2024/02/21 08:34:08;;;;;;;13.57;6.93;;;;;;;;;;5091962;28;20027;-60
2024/02/21 08:36:35;;;;;;;19.83;7.80;;;;;;;;;;5092327;28;20501;-59
2024/02/21 08:39:03;;;;;;;17.52;7.57;;;;;;;;;;5090811;28;20028;-59
2024/02/21 08:41:31;;;;;;;16.42;7.38;;;;;;;;;;5093350;28;20020;-59
2024/02/21 08:43:56;;;;;;;19.70;7.30;;;;;;;;;;5100563;28;20027;-59
2024/02/21 08:46:24;;;;;;;16.60;6.65;;;;;;;;;;5094839;28;20032;-60
2024/02/21 08:48:50;;;;;;;15.82;7.18;;;;;;;;;;5103390;28;20566;-58
2024/02/21 08:51:16;;;;;;;25.98;8.65;;;;;;;;;;5095032;28;20030;-60
2024/02/21 08:53:42;;;;;;;16.77;7.57;;;;;;;;;;5091934;28;20492;-60
2024/02/21 08:56:08;;;;;;;20.60;7.93;;;;;;;;;;5090762;28;20035;-59
2024/02/21 08:58:34;;;;;;;18.75;7.63;;;;;;;;;;5095397;28;20462;-60
2024/02/21 09:01:00;;;;;;;24.27;6.80;;;;;;;;;;5092320;28;20027;-58
2024/02/21 09:03:26;;;;;;;21.23;7.50;;;;;;;;;;5101303;28;20107;-58
2024/02/21 09:05:53;;;;;;;20.90;8.35;;;;;;;;;;5088302;28;20472;-58
2024/02/21 09:08:21;;;;;;;20.10;8.82;;;;;;;;;;5100834;28;20028;-59
2024/02/21 09:10:47;;;;;;;21.08;8.25;;;;;;;;;;5087007;28;20104;-59
2024/02/21 09:13:13;;;;;;;21.38;8.27;;;;;;;;;;5088883;28;20368;-59
2024/02/21 09:15:39;;;;;;;24.40;8.15;;;;;;;;;;5081386;28;20032;-59
2024/02/21 09:18:05;;;;;;;21.33;8.63;;;;;;;;;;5085271;28;20040;-59
2024/02/21 09:20:31;;;;;;;17.13;8.02;;;;;;;;;;5094111;28;20059;-58
2024/02/21 09:22:57;;;;;;;19.65;7.35;;;;;;;;;;5091255;28;20384;-59
2024/02/21 09:25:23;;;;;;;22.45;7.85;;;;;;;;;;5091056;28;20476;-58
2024/02/21 09:27:49;;;;;;;20.77;7.82;;;;;;;;;;5091350;28;20027;-60
2024/02/21 09:30:15;;;;;;;17.52;7.95;;;;;;;;;;5091078;28;20081;-59
2024/02/21 09:32:41;;;;;;;18.38;7.88;;;;;;;;;;5091161;28;20512;-59
2024/02/21 09:35:07;;;;;;;17.83;6.93;;;;;;;;;;5091107;28;20054;-58
2024/02/21 09:37:33;;;;;;;21.85;8.40;;;;;;;;;;5096732;28;20031;-59
2024/02/21 09:39:59;;;;;;;22.25;7.25;;;;;;;;;;5090495;28;20068;-57
2024/02/21 09:42:38;;;;;;;15.38;7.15;;;;;;;;;;5097108;28;20055;-57
2024/02/21 09:45:08;;;;;;;19.83;6.80;;;;;;;;;;5091636;28;20024;-57
2024/02/21 09:47:44;;;;;;;17.65;7.43;;;;;;;;;;5090868;28;20028;-60
2024/02/21 09:50:10;;;;;;;16.10;7.10;;;;;;;;;;5100986;28;20051;-60
2024/02/21 09:52:37;;;;;;;18.55;7.70;;;;;;;;;;5094458;28;20024;-59
2024/02/21 09:55:04;;;;;;;19.75;7.60;;;;;;;;;;5091246;28;20040;-59
2024/02/21 09:57:31;;;;;;;18.90;6.82;;;;;;;;;;5082563;28;20055;-60
2024/02/21 09:59:59;;;;;;;12.15;6.55;;;;;;;;;;5092943;28;20032;-60
2024/02/21 10:02:25;;;;;;;20.73;7.50;;;;;;;;;;5099983;28;20028;-59
2024/02/21 10:04:51;;;;;;;13.52;6.85;;;;;;;;;;5091214;28;20024;-59
2024/02/21 10:07:22;;;;;;;14.75;7.57;;;;;;;;;;5096905;28;20360;-60
2024/02/21 10:09:48;;;;;;;16.55;7.00;;;;;;;;;;5085364;28;20024;-60
2024/02/21 10:12:17;;;;;;;19.58;6.82;;;;;;;;;;5094220;28;20024;-59
2024/02/21 10:14:43;;;;;;;17.58;6.97;;;;;;;;;;5100386;28;20119;-60
2024/02/21 10:17:16;;;;;;;14.95;6.53;;;;;;;;;;5098856;28;20044;-59
2024/02/21 10:19:42;;;;;;;24.17;7.20;;;;;;;;;;5095332;28;20543;-59
2024/02/21 10:22:08;;;;;;;24.77;8.07;;;;;;;;;;5094402;28;20028;-60
2024/02/21 10:24:35;;;;;;;15.25;7.20;;;;;;;;;;5103440;28;20035;-60
2024/02/21 10:27:03;;;;;;;16.45;7.00;;;;;;;;;;5103304;28;20024;-60
2024/02/21 10:29:29;;;;;;;13.30;7.13;;;;;;;;;;5095093;28;20024;-60
2024/02/21 10:32:04;;;;;;;13.55;6.50;;;;;;;;;;5094654;28;20028;-60
2024/02/21 10:34:30;;;;;;;16.85;7.18;;;;;;;;;;5094683;28;20038;-59
2024/02/21 10:37:03;;;;;;;16.55;7.32;;;;;;;;;;5096898;28;20451;-60
2024/02/21 10:39:29;;;;;;;12.57;6.20;;;;;;;;;;5094809;28;20036;-59
2024/02/21 10:41:57;;;;;;;13.90;6.63;;;;;;;;;;5096047;28;20032;-60
2024/02/21 10:44:24;;;;;;;16.58;6.80;;;;;;;;;;5101410;28;20548;-58
2024/02/21 10:46:50;;;;;;;15.48;7.10;;;;;;;;;;5099102;28;20046;-60
2024/02/21 10:49:26;;;;;;;12.63;6.50;;;;;;;;;;5093563;28;20388;-60
2024/02/21 10:51:54;;;;;;;15.45;7.00;;;;;;;;;;5094304;28;20427;-60
2024/02/21 10:54:29;;;;;;;19.35;6.63;;;;;;;;;;5096956;28;20023;-60
2024/02/21 10:56:57;;;;;;;19.40;6.95;;;;;;;;;;5103787;28;20032;-59
2024/02/21 10:59:23;;;;;;;13.30;6.47;;;;;;;;;;5104905;28;20039;-59
2024/02/21 11:01:49;;;;;;;11.93;6.43;;;;;;;;;;5100959;28;20093;-60
2024/02/21 11:04:15;;;;;;;19.75;6.47;;;;;;;;;;5095535;28;20056;-58
2024/02/21 11:06:42;;;;;;;20.63;6.38;;;;;;;;;;5090826;28;20031;-59
2024/02/21 11:09:09;;;;;;;15.15;5.38;;;;;;;;;;5094793;28;20068;-60
2024/02/21 11:11:38;;;;;;;9.57;5.15;;;;;;;;;;5094030;28;20542;-58
2024/02/21 11:14:09;;;;;;;12.68;5.10;;;;;;;;;;5089692;28;20048;-57
2024/02/21 11:16:39;;;;;;;11.95;5.32;;;;;;;;;;5093885;28;20040;-60
2024/02/21 11:19:06;;;;;;;10.93;5.25;;;;;;;;;;5088308;28;20061;-58
2024/02/21 11:21:38;;;;;;;10.23;5.40;;;;;;;;;;5092273;28;20453;-59
2024/02/21 11:24:04;;;;;;;10.85;4.82;;;;;;;;;;5082529;28;20064;-60
2024/02/21 11:26:31;;;;;;;14.10;5.22;;;;;;;;;;5080221;28;20031;-59
2024/02/21 11:28:58;;;;;;;7.95;4.47;;;;;;;;;;5088685;28;20025;-59
2024/02/21 11:31:27;;;;;;;9.63;4.80;;;;;;;;;;5081048;28;20477;-60
2024/02/21 11:33:53;;;;;;;10.38;4.20;;;;;;;;;;5086403;28;20029;-59
2024/02/21 11:36:28;;;;;;;11.05;4.40;;;;;;;;;;5086436;28;20038;-60
2024/02/21 11:38:54;;;;;;;11.80;3.72;;;;;;;;;;5079945;28;20029;-59
2024/02/21 11:41:20;;;;;;;10.65;3.90;;;;;;;;;;5081371;28;20017;-59
2024/02/21 11:43:46;;;;;;;9.73;3.55;;;;;;;;;;5081760;28;20451;-59
2024/02/21 11:46:14;;;;;;;12.18;4.22;;;;;;;;;;5082672;28;20016;-60
2024/02/21 11:48:43;;;;;;;10.50;3.63;;;;;;;;;;5093389;28;20469;-59
2024/02/21 11:51:09;;;;;;;8.20;3.13;;;;;;;;;;5088805;28;20020;-59
2024/02/21 11:53:35;;;;;;;7.45;3.67;;;;;;;;;;5068667;28;20123;-60
2024/02/21 11:56:00;;;;;;;6.70;3.58;;;;;;;;;;5080775;28;20107;-60
2024/02/21 11:58:27;;;;;;;6.10;3.40;;;;;;;;;;5090186;28;20035;-61
2024/02/21 12:00:53;;;;;;;10.63;4.13;;;;;;;;;;5087271;28;20480;-60
2024/02/21 12:03:19;;;;;;;8.82;3.60;;;;;;;;;;5083295;28;20112;-61
2024/02/21 12:05:46;;;;;;;9.82;3.58;;;;;;;;;;5087412;28;20059;-61
2024/02/21 12:08:12;;;;;;;15.65;3.30;;;;;;;;;;5082776;28;20063;-60
2024/02/21 12:10:38;;;;;;;7.05;3.13;;;;;;;;;;5091888;28;20063;-60
2024/02/21 12:13:10;;;;;;;4.10;2.53;;;;;;;;;;5072573;28;20057;-60
2024/02/21 12:15:36;;;;;;;5.53;2.40;;;;;;;;;;5075479;28;20037;-59
2024/02/21 12:18:02;;;;;;;6.10;2.10;;;;;;;;;;5072871;28;20048;-60
2024/02/21 12:20:28;;;;;;;5.10;2.60;;;;;;;;;;5072723;28;20029;-60
2024/02/21 12:22:54;;;;;;;5.68;2.17;;;;;;;;;;5089979;28;20028;-60
2024/02/21 12:25:26;;;;;;;8.75;2.78;;;;;;;;;;5084312;28;20028;-59
2024/02/21 12:27:52;;;;;;;7.10;2.67;;;;;;;;;;5066946;28;20078;-59
2024/02/21 12:30:19;;;;;;;6.82;2.70;;;;;;;;;;5090736;28;20105;-60
2024/02/21 12:32:45;;;;;;;6.72;2.55;;;;;;;;;;5079264;28;20034;-60
2024/02/21 12:35:11;;;;;;;6.60;2.63;;;;;;;;;;5091625;28;20744;-59
2024/02/21 12:37:37;;;;;;;5.72;2.50;;;;;;;;;;5091264;28;20101;-59
2024/02/21 12:40:06;;;;;;;10.02;3.53;;;;;;;;;;5078404;28;20392;-59
2024/02/21 12:42:33;;;;;;;6.97;2.72;;;;;;;;;;5091036;28;20548;-57
2024/02/21 12:44:59;;;;;;;7.68;2.67;;;;;;;;;;5090853;28;20032;-59
2024/02/21 12:47:26;;;;;;;7.53;3.10;;;;;;;;;;5090801;28;20100;-59
2024/02/21 12:49:52;;;;;;;12.60;3.30;;;;;;;;;;5090861;28;20114;-60
2024/02/21 12:52:18;;;;;;;8.60;3.58;;;;;;;;;;5091726;28;20062;-59
2024/02/21 12:54:44;;;;;;;5.07;2.97;;;;;;;;;;5083306;28;20016;-60
2024/02/21 12:57:10;;;;;;;6.30;3.08;;;;;;;;;;5086170;28;20036;-60
2024/02/21 12:59:36;;;;;;;6.60;3.28;;;;;;;;;;5076337;28;20039;-59
2024/02/21 13:02:02;;;;;;;4.75;2.80;;;;;;;;;;5085514;28;20487;-59
2024/02/21 13:04:28;;;;;;;5.78;2.40;;;;;;;;;;5090202;28;20107;-60
2024/02/21 13:06:55;;;;;;;7.00;2.72;;;;;;;;;;5087533;28;20024;-59
2024/02/21 13:09:21;;;;;;;9.88;2.55;;;;;;;;;;5074565;28;20036;-59
2024/02/21 13:11:47;;;;;;;5.72;2.42;;;;;;;;;;5070597;28;20033;-59
2024/02/21 13:14:13;;;;;;;7.68;2.63;;;;;;;;;;5080193;28;20036;-59
2024/02/21 13:16:40;;;;;;;9.35;2.53;;;;;;;;;;5090082;28;20352;-58
2024/02/21 13:19:06;;;;;;;11.95;3.05;;;;;;;;;;5095282;28;20032;-58
2024/02/21 13:21:32;;;;;;;5.88;2.85;;;;;;;;;;5091557;28;20032;-59
2024/02/21 13:23:58;;;;;;;8.60;2.70;;;;;;;;;;5090920;28;20036;-58
2024/02/21 13:26:24;;;;;;;7.05;2.33;;;;;;;;;;5088568;28;20032;-58
2024/02/21 13:28:50;;;;;;;7.63;2.75;;;;;;;;;;5091512;28;20016;-59
2024/02/21 13:31:16;;;;;;;9.23;2.78;;;;;;;;;;5091459;28;20031;-60
2024/02/21 13:33:44;;;;;;;5.53;2.65;;;;;;;;;;5102181;28;20022;-60
2024/02/21 13:36:10;;;;;;;5.70;2.60;;;;;;;;;;5093899;28;20114;-60
2024/02/21 13:38:36;;;;;;;8.65;2.38;;;;;;;;;;5091462;28;20114;-59
2024/02/21 13:41:02;;;;;;;7.78;2.78;;;;;;;;;;5094038;28;20506;-59
2024/02/21 13:43:28;;;;;;;6.63;3.47;;;;;;;;;;5087584;28;20028;-58
2024/02/21 13:46:09;;;;;;;7.90;2.75;;;;;;;;;;5091397;28;20383;-58
2024/02/21 13:48:35;;;;;;;8.32;2.92;;;;;;;;;;5088683;28;20031;-58
2024/02/21 13:51:04;;;;;;;7.28;2.47;;;;;;;;;;5088628;28;20020;-60
2024/02/21 13:53:30;;;;;;;6.65;2.25;;;;;;;;;;5095769;28;20028;-60
2024/02/21 13:55:56;;;;;;;7.15;2.17;;;;;;;;;;5093072;28;20035;-60
2024/02/21 13:58:23;;;;;;;12.32;2.30;;;;;;;;;;5096728;28;20028;-59
2024/02/21 14:00:49;;;;;;;3.90;2.03;;;;;;;;;;5091039;28;20059;-59
2024/02/21 14:03:15;;;;;;;8.50;2.55;;;;;;;;;;5094026;28;20024;-60
2024/02/21 14:05:41;;;;;;;3.60;2.10;;;;;;;;;;5091715;28;20046;-58
2024/02/21 14:08:07;;;;;;;6.80;2.60;;;;;;;;;;5090951;28;20024;-59
2024/02/21 14:10:33;;;;;;;8.05;2.22;;;;;;;;;;5089329;28;20028;-58
2024/02/21 14:13:00;;;;;;;4.80;2.30;;;;;;;;;;5089664;28;20123;-59
2024/02/21 14:15:26;;;;;;;7.25;2.17;;;;;;;;;;5090727;28;20020;-59
2024/02/21 14:17:52;;;;;;;7.68;2.40;;;;;;;;;;5095011;28;20059;-58
2024/02/21 14:20:18;;;;;;;9.55;2.17;;;;;;;;;;5090402;28;20107;-59
2024/02/21 14:22:44;;;;;;;4.93;1.98;;;;;;;;;;5089182;28;20092;-60
2024/02/21 14:25:10;;;;;;;5.55;2.05;;;;;;;;;;5092165;28;20028;-59
2024/02/21 14:27:36;;;;;;;7.78;2.28;;;;;;;;;;5102997;28;20027;-59
2024/02/21 14:30:02;;;;;;;3.95;1.90;;;;;;;;;;5094742;28;20134;-59